Terminal Aerodrome Forecast
Issued by NWS Tampa Bay Area, FL

Home | Current Version | Previous Version | Text Only | Print | Product List | Glossary On
Versions: 1 2 3 4 5 6 7 8 9 10 11 12 13 14 15 16 17
000
FTUS42 KTBW 231732
TAFFMY
TAF
KFMY 231732Z 2318/2418 21014G20KT P6SM SCT040 BKN200
     FM240100 22009KT P6SM BKN200
     FM241200 19012KT P6SM SCT030 BKN050
     FM241500 21018G26KT 6SM -RA VCTS SCT030CB OVC050=

USA.gov is the U.S. government's official web portal to all federal, state and local government web resources and services.